AAL1700 KCLT-KPHX
Flight info
| Callsign | AAL1700 |
|---|---|
| Flight time | 4h 10m |
| Altitude | 30000 |
| Route | BOBZY5 BNA KK45E LBL KENTO KA39W TAMEY ZUN EAGUL6 |
| Aircraft | A321/M-SDE3FGHIRWY/LB1 |
Departure
| Time | 2026-05-07 19:51 |
|---|---|
| Airport | Charlotte Douglas International Airport (KCLT) |
Arrival
| Time | 2026-05-08 00:01 |
|---|---|
| Airport | Phoenix Sky Harbor International Airport (KPHX) |
| Time | Latitude | Longitude | Altitude | Speed | Heading |
|---|---|---|---|---|---|
| 2026-05-07 19:00 | 35.21863 | -80.94302 | 733 ft | 0 kts | 75° |
| 2026-05-07 19:41 | 35.21858 | -80.94317 | 732 ft | 4 kts | 47° |
| 2026-05-07 19:41 | 35.21844 | -80.94339 | 730 ft | 4 kts | 62° |
| 2026-05-07 19:41 | 35.21838 | -80.94367 | 732 ft | 4 kts | 112° |
| 2026-05-07 19:41 | 35.21854 | -80.94387 | 730 ft | 4 kts | 165° |
| 2026-05-07 19:42 | 35.21880 | -80.94390 | 731 ft | 4 kts | 179° |
| 2026-05-07 19:42 | 35.21891 | -80.94390 | 731 ft | 0 kts | 179° |
| 2026-05-07 19:45 | 35.21862 | -80.94389 | 732 ft | 8 kts | 177° |
| 2026-05-07 19:45 | 35.21806 | -80.94385 | 732 ft | 8 kts | 176° |
| 2026-05-07 19:45 | 35.21755 | -80.94379 | 732 ft | 7 kts | 174° |
| 2026-05-07 19:46 | 35.21704 | -80.94370 | 732 ft | 8 kts | 161° |
| 2026-05-07 19:46 | 35.21654 | -80.94323 | 732 ft | 10 kts | 139° |
| 2026-05-07 19:46 | 35.21593 | -80.94274 | 732 ft | 12 kts | 175° |
| 2026-05-07 19:46 | 35.21519 | -80.94332 | 732 ft | 14 kts | 225° |
| 2026-05-07 19:47 | 35.21447 | -80.94433 | 732 ft | 17 kts | 230° |
| 2026-05-07 19:47 | 35.21365 | -80.94551 | 730 ft | 18 kts | 229° |
| 2026-05-07 19:47 | 35.21313 | -80.94684 | 731 ft | 17 kts | 253° |
| 2026-05-07 19:47 | 35.21264 | -80.94804 | 732 ft | 15 kts | 232° |
| 2026-05-07 19:48 | 35.21188 | -80.94912 | 731 ft | 18 kts | 230° |
| 2026-05-07 19:48 | 35.21089 | -80.94975 | 732 ft | 16 kts | 180° |
| 2026-05-07 19:48 | 35.20960 | -80.94965 | 724 ft | 24 kts | 175° |
| 2026-05-07 19:48 | 35.20777 | -80.94949 | 732 ft | 25 kts | 176° |
| 2026-05-07 19:49 | 35.20613 | -80.94936 | 733 ft | 23 kts | 175° |
| 2026-05-07 19:49 | 35.20461 | -80.94920 | 733 ft | 21 kts | 176° |
| 2026-05-07 19:49 | 35.20322 | -80.94910 | 733 ft | 19 kts | 176° |
| 2026-05-07 19:49 | 35.20193 | -80.94900 | 733 ft | 18 kts | 176° |
| 2026-05-07 19:50 | 35.20075 | -80.94890 | 733 ft | 13 kts | 176° |
| 2026-05-07 19:50 | 35.20018 | -80.94943 | 732 ft | 10 kts | 258° |
| 2026-05-07 19:50 | 35.20017 | -80.95044 | 735 ft | 14 kts | 285° |
| 2026-05-07 19:50 | 35.20100 | -80.95091 | 736 ft | 17 kts | 356° |
| 2026-05-07 19:51 | 35.20424 | -80.95120 | 739 ft | 81 kts | 355° |
| 2026-05-07 19:51 | 35.21187 | -80.95184 | 736 ft | 139 kts | 355° |
| 2026-05-07 19:51 | 35.22311 | -80.95288 | 771 ft | 181 kts | 353° |
| 2026-05-07 19:51 | 35.23602 | -80.95422 | 1384 ft | 183 kts | 349° |
| 2026-05-07 19:52 | 35.24712 | -80.96068 | 2033 ft | 178 kts | 314° |
| 2026-05-07 19:52 | 35.25584 | -80.97142 | 2493 ft | 181 kts | 312° |
| 2026-05-07 19:52 | 35.26501 | -80.98309 | 2639 ft | 199 kts | 313° |
| 2026-05-07 19:52 | 35.27484 | -80.99585 | 2772 ft | 214 kts | 303° |
| 2026-05-07 19:53 | 35.27980 | -81.01335 | 2890 ft | 229 kts | 270° |
| 2026-05-07 19:53 | 35.27637 | -81.03316 | 3079 ft | 248 kts | 253° |
| 2026-05-07 19:53 | 35.27080 | -81.05350 | 3514 ft | 256 kts | 252° |
| 2026-05-07 19:53 | 35.26506 | -81.07428 | 4161 ft | 258 kts | 252° |
| 2026-05-07 19:54 | 35.25931 | -81.09503 | 4838 ft | 258 kts | 252° |
| 2026-05-07 19:54 | 35.25355 | -81.11584 | 5469 ft | 258 kts | 252° |
| 2026-05-07 19:54 | 35.24781 | -81.13674 | 6090 ft | 260 kts | 252° |
| 2026-05-07 19:54 | 35.24205 | -81.15770 | 6732 ft | 259 kts | 252° |
| 2026-05-07 19:55 | 35.23632 | -81.17854 | 7358 ft | 259 kts | 253° |
| 2026-05-07 19:55 | 35.23058 | -81.19946 | 7942 ft | 259 kts | 252° |
| 2026-05-07 19:55 | 35.22486 | -81.22034 | 8586 ft | 258 kts | 253° |
| 2026-05-07 19:55 | 35.21915 | -81.24114 | 9191 ft | 258 kts | 253° |
| 2026-05-07 19:56 | 35.21344 | -81.26192 | 9785 ft | 258 kts | 253° |
| 2026-05-07 19:56 | 35.20770 | -81.28273 | 10271 ft | 262 kts | 253° |
| 2026-05-07 19:56 | 35.20168 | -81.30462 | 10391 ft | 280 kts | 253° |
| 2026-05-07 19:56 | 35.19615 | -81.32820 | 10506 ft | 296 kts | 260° |
| 2026-05-07 19:57 | 35.19394 | -81.35382 | 10627 ft | 311 kts | 268° |
| 2026-05-07 19:57 | 35.19332 | -81.38079 | 10725 ft | 325 kts | 269° |
| 2026-05-07 19:57 | 35.19264 | -81.40890 | 10848 ft | 337 kts | 268° |
| 2026-05-07 19:57 | 35.19188 | -81.43748 | 11126 ft | 343 kts | 268° |
| 2026-05-07 19:58 | 35.19106 | -81.46669 | 11568 ft | 344 kts | 268° |
| 2026-05-07 19:58 | 35.19021 | -81.49596 | 12056 ft | 345 kts | 268° |
| 2026-05-07 19:58 | 35.18934 | -81.52528 | 12482 ft | 347 kts | 268° |
| 2026-05-07 19:58 | 35.18842 | -81.55486 | 12905 ft | 349 kts | 268° |
| 2026-05-07 19:59 | 35.18740 | -81.58448 | 13365 ft | 350 kts | 268° |
| 2026-05-07 19:59 | 35.18633 | -81.61421 | 13769 ft | 351 kts | 268° |
| 2026-05-07 19:59 | 35.18528 | -81.64399 | 14174 ft | 350 kts | 268° |
| 2026-05-07 19:59 | 35.18449 | -81.67362 | 14591 ft | 349 kts | 269° |
| 2026-05-07 20:00 | 35.18392 | -81.70320 | 15007 ft | 346 kts | 269° |
| 2026-05-07 20:00 | 35.18344 | -81.73252 | 15425 ft | 345 kts | 269° |
| 2026-05-07 20:00 | 35.18297 | -81.76176 | 15851 ft | 344 kts | 269° |
| 2026-05-07 20:00 | 35.18242 | -81.79094 | 16433 ft | 342 kts | 269° |
| 2026-05-07 20:01 | 35.18182 | -81.81996 | 17051 ft | 341 kts | 269° |
| 2026-05-07 20:01 | 35.18123 | -81.84889 | 17663 ft | 340 kts | 269° |
| 2026-05-07 20:01 | 35.18063 | -81.87764 | 18167 ft | 337 kts | 268° |
| 2026-05-07 20:01 | 35.18003 | -81.90627 | 18531 ft | 336 kts | 268° |
| 2026-05-07 20:02 | 35.17940 | -81.93485 | 18829 ft | 337 kts | 268° |
| 2026-05-07 20:02 | 35.17874 | -81.96355 | 19119 ft | 338 kts | 268° |
| 2026-05-07 20:02 | 35.17805 | -81.99232 | 19401 ft | 339 kts | 268° |
| 2026-05-07 20:02 | 35.17737 | -82.02118 | 19687 ft | 341 kts | 268° |
| 2026-05-07 20:03 | 35.17669 | -82.05018 | 19966 ft | 342 kts | 268° |
| 2026-05-07 20:03 | 35.17602 | -82.07931 | 20245 ft | 343 kts | 268° |
| 2026-05-07 20:03 | 35.17534 | -82.10851 | 20564 ft | 345 kts | 268° |
| 2026-05-07 20:03 | 35.17464 | -82.13784 | 20845 ft | 345 kts | 268° |
| 2026-05-07 20:04 | 35.17395 | -82.16720 | 21119 ft | 347 kts | 267° |
| 2026-05-07 20:04 | 35.17346 | -82.19671 | 21380 ft | 348 kts | 270° |
| 2026-05-07 20:04 | 35.17646 | -82.22620 | 21648 ft | 353 kts | 279° |
| 2026-05-07 20:04 | 35.18314 | -82.25524 | 21915 ft | 356 kts | 281° |
| 2026-05-07 20:05 | 35.19010 | -82.28434 | 22185 ft | 358 kts | 281° |
| 2026-05-07 20:05 | 35.19706 | -82.31365 | 22477 ft | 359 kts | 281° |
| 2026-05-07 20:05 | 35.20402 | -82.34302 | 22703 ft | 361 kts | 281° |
| 2026-05-07 20:05 | 35.21100 | -82.37257 | 22927 ft | 362 kts | 281° |
| 2026-05-07 20:06 | 35.21797 | -82.40216 | 23147 ft | 364 kts | 281° |
| 2026-05-07 20:06 | 35.22498 | -82.43195 | 23423 ft | 364 kts | 281° |
| 2026-05-07 20:06 | 35.23187 | -82.46141 | 23574 ft | 366 kts | 281° |
| 2026-05-07 20:06 | 35.23889 | -82.49142 | 23733 ft | 367 kts | 281° |
| 2026-05-07 20:07 | 35.24603 | -82.52182 | 24012 ft | 367 kts | 281° |
| 2026-05-07 20:07 | 35.25309 | -82.55183 | 24202 ft | 367 kts | 281° |
| 2026-05-07 20:07 | 35.26008 | -82.58152 | 24399 ft | 368 kts | 281° |
| 2026-05-07 20:07 | 35.26715 | -82.61161 | 24570 ft | 368 kts | 281° |
| 2026-05-07 20:08 | 35.27420 | -82.64172 | 24755 ft | 369 kts | 281° |
| 2026-05-07 20:08 | 35.28125 | -82.67195 | 24966 ft | 369 kts | 280° |
| 2026-05-07 20:08 | 35.28829 | -82.70211 | 25144 ft | 369 kts | 279° |
| 2026-05-07 20:08 | 35.29532 | -82.73238 | 25276 ft | 370 kts | 280° |
| 2026-05-07 20:09 | 35.30232 | -82.76265 | 25407 ft | 370 kts | 280° |
| 2026-05-07 20:09 | 35.30934 | -82.79296 | 25528 ft | 370 kts | 279° |
| 2026-05-07 20:09 | 35.31636 | -82.82327 | 25664 ft | 370 kts | 280° |
| 2026-05-07 20:10 | 35.33041 | -82.88394 | 26055 ft | 369 kts | 280° |
| 2026-05-07 20:10 | 35.33736 | -82.91409 | 26349 ft | 367 kts | 280° |
| 2026-05-07 20:10 | 35.34429 | -82.94408 | 26654 ft | 365 kts | 280° |
| 2026-05-07 20:10 | 35.35120 | -82.97389 | 26924 ft | 363 kts | 280° |
| 2026-05-07 20:11 | 35.35807 | -83.00359 | 27166 ft | 362 kts | 280° |
| 2026-05-07 20:11 | 35.36486 | -83.03321 | 27428 ft | 361 kts | 280° |
| 2026-05-07 20:11 | 35.37160 | -83.06285 | 27610 ft | 361 kts | 280° |
| 2026-05-07 20:11 | 35.37831 | -83.09238 | 27815 ft | 360 kts | 281° |
| 2026-05-07 20:12 | 35.38507 | -83.12189 | 28041 ft | 359 kts | 279° |
| 2026-05-07 20:12 | 35.39176 | -83.15120 | 28306 ft | 356 kts | 279° |
| 2026-05-07 20:12 | 35.39841 | -83.18036 | 28559 ft | 355 kts | 279° |
| 2026-05-07 20:12 | 35.40503 | -83.20935 | 28765 ft | 352 kts | 279° |
| 2026-05-07 20:13 | 35.41162 | -83.23822 | 28921 ft | 351 kts | 279° |
| 2026-05-07 20:13 | 35.41818 | -83.26703 | 29054 ft | 350 kts | 279° |
| 2026-05-07 20:13 | 35.42471 | -83.29579 | 29213 ft | 350 kts | 279° |
| 2026-05-07 20:13 | 35.43121 | -83.32458 | 29412 ft | 350 kts | 279° |
| 2026-05-07 20:14 | 35.43768 | -83.35331 | 29583 ft | 349 kts | 279° |
| 2026-05-07 20:14 | 35.44414 | -83.38193 | 29749 ft | 348 kts | 279° |
| 2026-05-07 20:14 | 35.45060 | -83.41048 | 29909 ft | 347 kts | 279° |
| 2026-05-07 20:15 | 35.46341 | -83.46721 | 29969 ft | 343 kts | 279° |
| 2026-05-07 20:15 | 35.47603 | -83.52354 | 29966 ft | 342 kts | 279° |
| 2026-05-07 20:16 | 35.48858 | -83.57959 | 29970 ft | 340 kts | 279° |
| 2026-05-07 20:16 | 35.50110 | -83.63540 | 29985 ft | 339 kts | 279° |
| 2026-05-07 20:17 | 35.51350 | -83.69128 | 29990 ft | 340 kts | 279° |
| 2026-05-07 20:17 | 35.52581 | -83.74687 | 29994 ft | 340 kts | 279° |
| 2026-05-07 20:18 | 35.53822 | -83.80288 | 30006 ft | 340 kts | 279° |
| 2026-05-07 20:18 | 35.55065 | -83.85878 | 29992 ft | 339 kts | 279° |
| 2026-05-07 20:19 | 35.56300 | -83.91474 | 30027 ft | 339 kts | 279° |
| 2026-05-07 20:19 | 35.57530 | -83.97072 | 30024 ft | 339 kts | 279° |
| 2026-05-07 20:20 | 35.58758 | -84.02660 | 30020 ft | 339 kts | 279° |
| 2026-05-07 20:20 | 35.59774 | -84.07301 | 30026 ft | 338 kts | 279° |
| 2026-05-07 20:21 | 35.60999 | -84.12879 | 30025 ft | 338 kts | 279° |
| 2026-05-07 20:21 | 35.62205 | -84.18391 | 30017 ft | 330 kts | 279° |
| 2026-05-07 20:22 | 35.63386 | -84.23831 | 30003 ft | 329 kts | 279° |
| 2026-05-07 20:22 | 35.64567 | -84.29280 | 30003 ft | 330 kts | 279° |
| 2026-05-07 20:23 | 35.65752 | -84.34736 | 30001 ft | 331 kts | 279° |
| 2026-05-07 20:23 | 35.66928 | -84.40204 | 30019 ft | 331 kts | 279° |
| 2026-05-07 20:24 | 35.68105 | -84.45676 | 30021 ft | 331 kts | 279° |
| 2026-05-07 20:24 | 35.69283 | -84.51154 | 30023 ft | 331 kts | 279° |
| 2026-05-07 20:25 | 35.70459 | -84.56626 | 30022 ft | 331 kts | 279° |
| 2026-05-07 20:25 | 35.71635 | -84.62107 | 30023 ft | 331 kts | 279° |
| 2026-05-07 20:26 | 35.72807 | -84.67585 | 30039 ft | 331 kts | 279° |
| 2026-05-07 20:26 | 35.73971 | -84.73063 | 30030 ft | 331 kts | 279° |
| 2026-05-07 20:27 | 35.75134 | -84.78535 | 30025 ft | 330 kts | 279° |
| 2026-05-07 20:27 | 35.76290 | -84.84005 | 30024 ft | 330 kts | 279° |
| 2026-05-07 20:28 | 35.77450 | -84.89479 | 30021 ft | 330 kts | 279° |
| 2026-05-07 20:28 | 35.78606 | -84.94951 | 30018 ft | 330 kts | 279° |
| 2026-05-07 20:29 | 35.79760 | -85.00431 | 30028 ft | 331 kts | 279° |
| 2026-05-07 20:29 | 35.80905 | -85.05918 | 30050 ft | 330 kts | 279° |
| 2026-05-07 20:30 | 35.82049 | -85.11401 | 30038 ft | 330 kts | 279° |
| 2026-05-07 20:30 | 35.83198 | -85.16885 | 30042 ft | 330 kts | 279° |
| 2026-05-07 20:31 | 35.84350 | -85.22368 | 30044 ft | 331 kts | 279° |
| 2026-05-07 20:31 | 35.85495 | -85.27853 | 30042 ft | 330 kts | 279° |
| 2026-05-07 20:32 | 35.86618 | -85.33304 | 30043 ft | 330 kts | 279° |
| 2026-05-07 20:32 | 35.87747 | -85.38795 | 30041 ft | 330 kts | 278° |
| 2026-05-07 20:33 | 35.88874 | -85.44288 | 30048 ft | 331 kts | 279° |
| 2026-05-07 20:33 | 35.90004 | -85.49784 | 30045 ft | 331 kts | 279° |
| 2026-05-07 20:34 | 35.91130 | -85.55278 | 30047 ft | 331 kts | 279° |
| 2026-05-07 20:34 | 35.92252 | -85.60779 | 30050 ft | 331 kts | 278° |
| 2026-05-07 20:35 | 35.93367 | -85.66278 | 30046 ft | 331 kts | 278° |
| 2026-05-07 20:35 | 35.94485 | -85.71780 | 30048 ft | 331 kts | 278° |
| 2026-05-07 20:36 | 35.95601 | -85.77286 | 30049 ft | 331 kts | 278° |
| 2026-05-07 20:36 | 35.96712 | -85.82797 | 30049 ft | 331 kts | 278° |
| 2026-05-07 20:37 | 35.97827 | -85.88309 | 30066 ft | 331 kts | 278° |
| 2026-05-07 20:37 | 35.98938 | -85.93828 | 30058 ft | 331 kts | 278° |
| 2026-05-07 20:38 | 36.00044 | -85.99344 | 30062 ft | 331 kts | 278° |
| 2026-05-07 20:38 | 36.01148 | -86.04861 | 30062 ft | 331 kts | 278° |
| 2026-05-07 20:39 | 36.02248 | -86.10382 | 30063 ft | 331 kts | 278° |
| 2026-05-07 20:39 | 36.03356 | -86.15904 | 30067 ft | 331 kts | 278° |
| 2026-05-07 20:40 | 36.04461 | -86.21430 | 30069 ft | 331 kts | 278° |
| 2026-05-07 20:40 | 36.05557 | -86.26959 | 30047 ft | 331 kts | 278° |
| 2026-05-07 20:41 | 36.06645 | -86.32452 | 30063 ft | 331 kts | 278° |
| 2026-05-07 20:41 | 36.07736 | -86.37979 | 30066 ft | 331 kts | 278° |
| 2026-05-07 20:42 | 36.08825 | -86.43508 | 30072 ft | 331 kts | 278° |
| 2026-05-07 20:42 | 36.09913 | -86.49037 | 30068 ft | 331 kts | 278° |
| 2026-05-07 20:43 | 36.10991 | -86.54570 | 30069 ft | 331 kts | 278° |
| 2026-05-07 20:43 | 36.12071 | -86.60099 | 30075 ft | 331 kts | 278° |
| 2026-05-07 20:44 | 36.13145 | -86.65631 | 30074 ft | 331 kts | 278° |
| 2026-05-07 20:44 | 36.14211 | -86.71165 | 30071 ft | 331 kts | 278° |
| 2026-05-07 20:45 | 36.15253 | -86.76706 | 30063 ft | 331 kts | 277° |
| 2026-05-07 20:45 | 36.16284 | -86.82252 | 30044 ft | 330 kts | 277° |
| 2026-05-07 20:46 | 36.17315 | -86.87791 | 30052 ft | 331 kts | 277° |
| 2026-05-07 20:46 | 36.18348 | -86.93339 | 30045 ft | 331 kts | 277° |
| 2026-05-07 20:47 | 36.19380 | -86.98887 | 30049 ft | 331 kts | 277° |
| 2026-05-07 20:47 | 36.20413 | -87.04442 | 30049 ft | 331 kts | 277° |
| 2026-05-07 20:48 | 36.21445 | -87.10001 | 30069 ft | 332 kts | 277° |
| 2026-05-07 20:48 | 36.22471 | -87.15578 | 30078 ft | 333 kts | 277° |
| 2026-05-07 20:49 | 36.23497 | -87.21170 | 30078 ft | 333 kts | 277° |
| 2026-05-07 20:49 | 36.24521 | -87.26767 | 30077 ft | 333 kts | 277° |
| 2026-05-07 20:50 | 36.25546 | -87.32374 | 30069 ft | 334 kts | 277° |
| 2026-05-07 20:50 | 36.26577 | -87.37987 | 30059 ft | 334 kts | 278° |
| 2026-05-07 20:51 | 36.27602 | -87.43615 | 30063 ft | 335 kts | 278° |
| 2026-05-07 20:51 | 36.28621 | -87.49256 | 30064 ft | 336 kts | 278° |
| 2026-05-07 20:52 | 36.29641 | -87.54904 | 30072 ft | 337 kts | 278° |
| 2026-05-07 20:52 | 36.30657 | -87.60566 | 30075 ft | 336 kts | 277° |
| 2026-05-07 20:53 | 36.31664 | -87.66183 | 30073 ft | 336 kts | 278° |
| 2026-05-07 20:53 | 36.32679 | -87.71835 | 30080 ft | 336 kts | 278° |
| 2026-05-07 20:54 | 36.33696 | -87.77503 | 30070 ft | 337 kts | 278° |
| 2026-05-07 20:54 | 36.34707 | -87.83191 | 30066 ft | 338 kts | 278° |
| 2026-05-07 20:55 | 36.35716 | -87.88892 | 30067 ft | 339 kts | 278° |
| 2026-05-07 20:55 | 36.36727 | -87.94607 | 30070 ft | 340 kts | 278° |
| 2026-05-07 20:56 | 36.37737 | -88.00337 | 30075 ft | 340 kts | 278° |
| 2026-05-07 20:56 | 36.38745 | -88.06064 | 30083 ft | 340 kts | 278° |
| 2026-05-07 20:57 | 36.39754 | -88.11796 | 30074 ft | 340 kts | 278° |
| 2026-05-07 20:57 | 36.40759 | -88.17542 | 30062 ft | 341 kts | 278° |
| 2026-05-07 20:58 | 36.41764 | -88.23302 | 30059 ft | 341 kts | 278° |
| 2026-05-07 20:58 | 36.42770 | -88.29062 | 30059 ft | 341 kts | 278° |
| 2026-05-07 20:59 | 36.43769 | -88.34822 | 30061 ft | 341 kts | 278° |
| 2026-05-07 20:59 | 36.44764 | -88.40583 | 30063 ft | 341 kts | 277° |
| 2026-05-07 21:00 | 36.45757 | -88.46341 | 30062 ft | 341 kts | 278° |
| 2026-05-07 21:00 | 36.46749 | -88.52106 | 30057 ft | 341 kts | 277° |
| 2026-05-07 21:01 | 36.47736 | -88.57876 | 30064 ft | 342 kts | 277° |
| 2026-05-07 21:01 | 36.48718 | -88.63619 | 30070 ft | 342 kts | 277° |
| 2026-05-07 21:02 | 36.49703 | -88.69407 | 30112 ft | 345 kts | 278° |
| 2026-05-07 21:02 | 36.50692 | -88.75265 | 30086 ft | 347 kts | 278° |
| 2026-05-07 21:03 | 36.51689 | -88.81146 | 30063 ft | 348 kts | 278° |
| 2026-05-07 21:03 | 36.52686 | -88.87041 | 30044 ft | 349 kts | 278° |
| 2026-05-07 21:04 | 36.53681 | -88.92943 | 30048 ft | 349 kts | 278° |
| 2026-05-07 21:04 | 36.54677 | -88.98854 | 30061 ft | 349 kts | 278° |
| 2026-05-07 21:05 | 36.55657 | -89.04767 | 30061 ft | 349 kts | 278° |
| 2026-05-07 21:05 | 36.56642 | -89.10688 | 30082 ft | 349 kts | 278° |
| 2026-05-07 21:06 | 36.57625 | -89.16605 | 30081 ft | 349 kts | 278° |
| 2026-05-07 21:06 | 36.58608 | -89.22525 | 30078 ft | 349 kts | 278° |
| 2026-05-07 21:07 | 36.59586 | -89.28457 | 30075 ft | 351 kts | 278° |
| 2026-05-07 21:07 | 36.60396 | -89.33402 | 30073 ft | 351 kts | 278° |
| 2026-05-07 21:08 | 36.61369 | -89.39370 | 30069 ft | 352 kts | 277° |
| 2026-05-07 21:08 | 36.62348 | -89.45349 | 30068 ft | 353 kts | 278° |
| 2026-05-07 21:09 | 36.63336 | -89.51336 | 30077 ft | 353 kts | 278° |
| 2026-05-07 21:09 | 36.64302 | -89.57322 | 30081 ft | 353 kts | 277° |
| 2026-05-07 21:10 | 36.65266 | -89.63320 | 30096 ft | 353 kts | 277° |
| 2026-05-07 21:10 | 36.66235 | -89.69314 | 30094 ft | 353 kts | 277° |
| 2026-05-07 21:11 | 36.67203 | -89.75304 | 30096 ft | 353 kts | 277° |
| 2026-05-07 21:11 | 36.68640 | -89.84300 | 30093 ft | 353 kts | 277° |
| 2026-05-07 21:12 | 36.69588 | -89.90299 | 30099 ft | 353 kts | 277° |
| 2026-05-07 21:12 | 36.70547 | -89.96299 | 30110 ft | 353 kts | 277° |
| 2026-05-07 21:13 | 36.71498 | -90.02305 | 30076 ft | 354 kts | 277° |
| 2026-05-07 21:13 | 36.72441 | -90.08325 | 30063 ft | 354 kts | 277° |
| 2026-05-07 21:14 | 36.73391 | -90.14353 | 30069 ft | 355 kts | 277° |
| 2026-05-07 21:14 | 36.74336 | -90.20389 | 30074 ft | 355 kts | 277° |
| 2026-05-07 21:15 | 36.75276 | -90.26447 | 30075 ft | 357 kts | 278° |
| 2026-05-07 21:15 | 36.76227 | -90.32540 | 30054 ft | 359 kts | 278° |
| 2026-05-07 21:16 | 36.77176 | -90.38626 | 30051 ft | 361 kts | 278° |
| 2026-05-07 21:16 | 36.78124 | -90.44785 | 30047 ft | 363 kts | 278° |
| 2026-05-07 21:17 | 36.79072 | -90.50982 | 30052 ft | 364 kts | 278° |
| 2026-05-07 21:17 | 36.80023 | -90.57195 | 30058 ft | 365 kts | 278° |
| 2026-05-07 21:18 | 36.80971 | -90.63418 | 30062 ft | 365 kts | 278° |
| 2026-05-07 21:18 | 36.81926 | -90.69650 | 30068 ft | 366 kts | 278° |
| 2026-05-07 21:19 | 36.82878 | -90.75889 | 30077 ft | 366 kts | 278° |
| 2026-05-07 21:19 | 36.83821 | -90.82134 | 30063 ft | 366 kts | 278° |
| 2026-05-07 21:20 | 36.84761 | -90.88387 | 30066 ft | 367 kts | 278° |
| 2026-05-07 21:20 | 36.85700 | -90.94653 | 30070 ft | 367 kts | 278° |
| 2026-05-07 21:21 | 36.86632 | -91.00918 | 30070 ft | 367 kts | 278° |
| 2026-05-07 21:21 | 36.87565 | -91.07189 | 30071 ft | 367 kts | 278° |
| 2026-05-07 21:22 | 36.88491 | -91.13421 | 30080 ft | 367 kts | 277° |
| 2026-05-07 21:22 | 36.89422 | -91.19696 | 30067 ft | 368 kts | 278° |
| 2026-05-07 21:23 | 36.90353 | -91.25983 | 30064 ft | 368 kts | 277° |
| 2026-05-07 21:23 | 36.91273 | -91.32278 | 30066 ft | 369 kts | 277° |
| 2026-05-07 21:24 | 36.92190 | -91.38588 | 30067 ft | 369 kts | 277° |
| 2026-05-07 21:24 | 36.93107 | -91.44890 | 30073 ft | 369 kts | 277° |
| 2026-05-07 21:25 | 36.94016 | -91.51199 | 30078 ft | 369 kts | 277° |
| 2026-05-07 21:25 | 36.94923 | -91.57517 | 30064 ft | 370 kts | 277° |
| 2026-05-07 21:26 | 36.95833 | -91.63845 | 30065 ft | 370 kts | 277° |
| 2026-05-07 21:26 | 36.96746 | -91.70180 | 30067 ft | 371 kts | 277° |
| 2026-05-07 21:27 | 36.97651 | -91.76527 | 30064 ft | 371 kts | 277° |
| 2026-05-07 21:27 | 36.98551 | -91.82891 | 30093 ft | 372 kts | 278° |
| 2026-05-07 21:28 | 36.99456 | -91.89272 | 30083 ft | 373 kts | 278° |
| 2026-05-07 21:28 | 37.00367 | -91.95671 | 30066 ft | 374 kts | 278° |
| 2026-05-07 21:29 | 37.01260 | -92.02042 | 30059 ft | 375 kts | 278° |
| 2026-05-07 21:29 | 37.02159 | -92.08467 | 30059 ft | 375 kts | 278° |
| 2026-05-07 21:30 | 37.03054 | -92.14905 | 30060 ft | 376 kts | 278° |
| 2026-05-07 21:30 | 37.03947 | -92.21343 | 30062 ft | 376 kts | 278° |
| 2026-05-07 21:31 | 37.04833 | -92.27789 | 30063 ft | 376 kts | 277° |
| 2026-05-07 21:31 | 37.05721 | -92.34243 | 30048 ft | 377 kts | 278° |
| 2026-05-07 21:32 | 37.06611 | -92.40705 | 30047 ft | 377 kts | 278° |
| 2026-05-07 21:32 | 37.07492 | -92.47181 | 30051 ft | 377 kts | 277° |
| 2026-05-07 21:33 | 37.08376 | -92.53660 | 30062 ft | 378 kts | 278° |
| 2026-05-07 21:33 | 37.09253 | -92.60141 | 30066 ft | 378 kts | 277° |
| 2026-05-07 21:34 | 37.10127 | -92.66626 | 30067 ft | 377 kts | 277° |
| 2026-05-07 21:34 | 37.10991 | -92.73113 | 30060 ft | 378 kts | 277° |
| 2026-05-07 21:35 | 37.11850 | -92.79608 | 30057 ft | 378 kts | 278° |
| 2026-05-07 21:35 | 37.12719 | -92.86114 | 30058 ft | 379 kts | 278° |
| 2026-05-07 21:36 | 37.13580 | -92.92622 | 30062 ft | 379 kts | 277° |
| 2026-05-07 21:36 | 37.14437 | -92.99134 | 30062 ft | 379 kts | 277° |
| 2026-05-07 21:37 | 37.15296 | -93.05652 | 30039 ft | 379 kts | 277° |
| 2026-05-07 21:37 | 37.16152 | -93.12173 | 30042 ft | 379 kts | 277° |
| 2026-05-07 21:38 | 37.16995 | -93.18658 | 30047 ft | 380 kts | 277° |
| 2026-05-07 21:38 | 37.17839 | -93.25199 | 30056 ft | 380 kts | 277° |
| 2026-05-07 21:39 | 37.18677 | -93.31745 | 30059 ft | 380 kts | 277° |
| 2026-05-07 21:39 | 37.19516 | -93.38292 | 30083 ft | 381 kts | 277° |
| 2026-05-07 21:40 | 37.20359 | -93.44848 | 30076 ft | 381 kts | 277° |
| 2026-05-07 21:40 | 37.21195 | -93.51410 | 30070 ft | 381 kts | 277° |
| 2026-05-07 21:41 | 37.22020 | -93.57968 | 30064 ft | 381 kts | 277° |
| 2026-05-07 21:41 | 37.22847 | -93.64539 | 30063 ft | 381 kts | 277° |
| 2026-05-07 21:42 | 37.23669 | -93.71104 | 30065 ft | 381 kts | 277° |
| 2026-05-07 21:42 | 37.24491 | -93.77674 | 30062 ft | 381 kts | 277° |
| 2026-05-07 21:43 | 37.25307 | -93.84249 | 30043 ft | 381 kts | 277° |
| 2026-05-07 21:43 | 37.26122 | -93.90833 | 30045 ft | 382 kts | 277° |
| 2026-05-07 21:44 | 37.26931 | -93.97433 | 30048 ft | 382 kts | 277° |
| 2026-05-07 21:44 | 37.27738 | -94.04029 | 30053 ft | 383 kts | 277° |
| 2026-05-07 21:45 | 37.28545 | -94.10629 | 30056 ft | 383 kts | 277° |
| 2026-05-07 21:45 | 37.29345 | -94.17200 | 30056 ft | 383 kts | 277° |
| 2026-05-07 21:46 | 37.30149 | -94.23810 | 30047 ft | 383 kts | 277° |
| 2026-05-07 21:46 | 37.30942 | -94.30440 | 30047 ft | 384 kts | 277° |
| 2026-05-07 21:47 | 37.31735 | -94.37080 | 30052 ft | 385 kts | 277° |
| 2026-05-07 21:47 | 37.32524 | -94.43727 | 30053 ft | 385 kts | 277° |
| 2026-05-07 21:48 | 37.33315 | -94.50376 | 30048 ft | 385 kts | 277° |
| 2026-05-07 21:48 | 37.34102 | -94.57027 | 30049 ft | 385 kts | 277° |
| 2026-05-07 21:49 | 37.34885 | -94.63689 | 30028 ft | 386 kts | 277° |
| 2026-05-07 21:49 | 37.35666 | -94.70362 | 30012 ft | 386 kts | 277° |
| 2026-05-07 21:50 | 37.36441 | -94.77048 | 30015 ft | 387 kts | 277° |
| 2026-05-07 21:50 | 37.37206 | -94.83735 | 30021 ft | 387 kts | 277° |
| 2026-05-07 21:51 | 37.37970 | -94.90429 | 30064 ft | 387 kts | 277° |
| 2026-05-07 21:51 | 37.38730 | -94.97118 | 30038 ft | 386 kts | 277° |
| 2026-05-07 21:52 | 37.39486 | -95.03765 | 30034 ft | 387 kts | 277° |
| 2026-05-07 21:52 | 37.40254 | -95.10456 | 30034 ft | 387 kts | 277° |
| 2026-05-07 21:53 | 37.41016 | -95.17153 | 30036 ft | 387 kts | 277° |
| 2026-05-07 21:53 | 37.41757 | -95.23854 | 30031 ft | 387 kts | 277° |
| 2026-05-07 21:54 | 37.42496 | -95.30556 | 30027 ft | 387 kts | 277° |
| 2026-05-07 21:54 | 37.43245 | -95.37258 | 30012 ft | 387 kts | 277° |
| 2026-05-07 21:55 | 37.43988 | -95.43968 | 30015 ft | 387 kts | 277° |
| 2026-05-07 21:55 | 37.44722 | -95.50686 | 30016 ft | 388 kts | 276° |
| 2026-05-07 21:56 | 37.45453 | -95.57408 | 30019 ft | 388 kts | 276° |
| 2026-05-07 21:56 | 37.46071 | -95.63043 | 30019 ft | 388 kts | 276° |
| 2026-05-07 21:57 | 37.46915 | -95.70858 | 30020 ft | 388 kts | 276° |
| 2026-05-07 21:57 | 37.47512 | -95.76499 | 30004 ft | 388 kts | 276° |
| 2026-05-07 21:58 | 37.48227 | -95.83242 | 30005 ft | 389 kts | 276° |
| 2026-05-07 21:58 | 37.48945 | -95.89994 | 30009 ft | 389 kts | 276° |
| 2026-05-07 21:59 | 37.49657 | -95.96706 | 30021 ft | 389 kts | 276° |
| 2026-05-07 21:59 | 37.49769 | -96.03492 | 30018 ft | 389 kts | 265° |
| 2026-05-07 22:00 | 37.49276 | -96.10271 | 30002 ft | 389 kts | 265° |
| 2026-05-07 22:00 | 37.48787 | -96.17057 | 30005 ft | 389 kts | 265° |
| 2026-05-07 22:01 | 37.48303 | -96.23842 | 30022 ft | 389 kts | 265° |
| 2026-05-07 22:01 | 37.47814 | -96.30628 | 30010 ft | 389 kts | 265° |
| 2026-05-07 22:02 | 37.47313 | -96.37418 | 30003 ft | 389 kts | 265° |
| 2026-05-07 22:02 | 37.46813 | -96.44204 | 30005 ft | 389 kts | 265° |
| 2026-05-07 22:03 | 37.46306 | -96.50997 | 29984 ft | 390 kts | 265° |
| 2026-05-07 22:03 | 37.45796 | -96.57795 | 29983 ft | 391 kts | 265° |
| 2026-05-07 22:04 | 37.45282 | -96.64602 | 29983 ft | 391 kts | 265° |
| 2026-05-07 22:04 | 37.44773 | -96.71366 | 29984 ft | 391 kts | 265° |
| 2026-05-07 22:05 | 37.44250 | -96.78184 | 29984 ft | 391 kts | 265° |
| 2026-05-07 22:05 | 37.43721 | -96.84998 | 29976 ft | 391 kts | 265° |
| 2026-05-07 22:06 | 37.43186 | -96.91816 | 29973 ft | 392 kts | 265° |
| 2026-05-07 22:06 | 37.42654 | -96.98643 | 29968 ft | 392 kts | 265° |
| 2026-05-07 22:07 | 37.42117 | -97.05467 | 29956 ft | 392 kts | 265° |
| 2026-05-07 22:07 | 37.41575 | -97.12300 | 29971 ft | 392 kts | 265° |
| 2026-05-07 22:08 | 37.41027 | -97.19129 | 29968 ft | 392 kts | 265° |
| 2026-05-07 22:08 | 37.40473 | -97.25954 | 29970 ft | 392 kts | 265° |
| 2026-05-07 22:09 | 37.39912 | -97.32785 | 29977 ft | 392 kts | 265° |
| 2026-05-07 22:09 | 37.39355 | -97.39606 | 29972 ft | 392 kts | 265° |
| 2026-05-07 22:10 | 37.38797 | -97.46435 | 29973 ft | 392 kts | 265° |
| 2026-05-07 22:10 | 37.38228 | -97.53257 | 29960 ft | 392 kts | 265° |
| 2026-05-07 22:11 | 37.37657 | -97.60078 | 29941 ft | 392 kts | 265° |
| 2026-05-07 22:11 | 37.37094 | -97.66861 | 29943 ft | 393 kts | 265° |
| 2026-05-07 22:12 | 37.36511 | -97.73694 | 29944 ft | 393 kts | 264° |
| 2026-05-07 22:12 | 37.35920 | -97.80529 | 29943 ft | 394 kts | 264° |
| 2026-05-07 22:13 | 37.35329 | -97.87377 | 29943 ft | 394 kts | 265° |
| 2026-05-07 22:13 | 37.34740 | -97.94226 | 29944 ft | 394 kts | 264° |
| 2026-05-07 22:14 | 37.34145 | -98.01080 | 29925 ft | 395 kts | 264° |
| 2026-05-07 22:14 | 37.33542 | -98.07941 | 29927 ft | 396 kts | 264° |
| 2026-05-07 22:15 | 37.32933 | -98.14816 | 29933 ft | 396 kts | 264° |
| 2026-05-07 22:15 | 37.32323 | -98.21697 | 29935 ft | 396 kts | 264° |
| 2026-05-07 22:16 | 37.31702 | -98.28576 | 29939 ft | 396 kts | 264° |
| 2026-05-07 22:16 | 37.31076 | -98.35458 | 29924 ft | 397 kts | 264° |
| 2026-05-07 22:17 | 37.30454 | -98.42351 | 29924 ft | 397 kts | 264° |
| 2026-05-07 22:17 | 37.29826 | -98.49254 | 29926 ft | 398 kts | 264° |
| 2026-05-07 22:18 | 37.28871 | -98.59609 | 29927 ft | 398 kts | 264° |
| 2026-05-07 22:19 | 37.28236 | -98.66463 | 29928 ft | 398 kts | 264° |
| 2026-05-07 22:19 | 37.27595 | -98.73366 | 29906 ft | 398 kts | 264° |
| 2026-05-07 22:20 | 37.26943 | -98.80276 | 29916 ft | 399 kts | 264° |
| 2026-05-07 22:20 | 37.26287 | -98.87200 | 29919 ft | 400 kts | 264° |
| 2026-05-07 22:21 | 37.25624 | -98.94130 | 29924 ft | 400 kts | 264° |
| 2026-05-07 22:21 | 37.24959 | -99.01064 | 29929 ft | 400 kts | 264° |
| 2026-05-07 22:22 | 37.24295 | -99.08002 | 29928 ft | 401 kts | 264° |
| 2026-05-07 22:22 | 37.23622 | -99.14944 | 29920 ft | 401 kts | 264° |
| 2026-05-07 22:23 | 37.22939 | -99.21899 | 29924 ft | 402 kts | 264° |
| 2026-05-07 22:23 | 37.22249 | -99.28862 | 29929 ft | 402 kts | 264° |
| 2026-05-07 22:24 | 37.21561 | -99.35832 | 29932 ft | 402 kts | 264° |
| 2026-05-07 22:24 | 37.20867 | -99.42794 | 29931 ft | 402 kts | 264° |
| 2026-05-07 22:25 | 37.20174 | -99.49756 | 29924 ft | 402 kts | 264° |
| 2026-05-07 22:25 | 37.19476 | -99.56727 | 29926 ft | 403 kts | 264° |
| 2026-05-07 22:26 | 37.18770 | -99.63699 | 29927 ft | 404 kts | 264° |
| 2026-05-07 22:26 | 37.18052 | -99.70639 | 29933 ft | 404 kts | 264° |
| 2026-05-07 22:27 | 37.17333 | -99.77616 | 29924 ft | 404 kts | 264° |
| 2026-05-07 22:27 | 37.16618 | -99.84599 | 29908 ft | 404 kts | 264° |
| 2026-05-07 22:28 | 37.15901 | -99.91594 | 29917 ft | 405 kts | 264° |
| 2026-05-07 22:28 | 37.15172 | -99.98599 | 29926 ft | 406 kts | 264° |
| 2026-05-07 22:29 | 37.14436 | -100.05610 | 29926 ft | 406 kts | 263° |
| 2026-05-07 22:29 | 37.13693 | -100.12629 | 29929 ft | 406 kts | 263° |
| 2026-05-07 22:30 | 37.12947 | -100.19640 | 29926 ft | 406 kts | 263° |
| 2026-05-07 22:30 | 37.12201 | -100.26663 | 29917 ft | 407 kts | 264° |
| 2026-05-07 22:31 | 37.11444 | -100.33688 | 29933 ft | 407 kts | 263° |
| 2026-05-07 22:31 | 37.10680 | -100.40721 | 29931 ft | 408 kts | 263° |
| 2026-05-07 22:32 | 37.09917 | -100.47768 | 29935 ft | 408 kts | 263° |
| 2026-05-07 22:32 | 37.09151 | -100.54808 | 29939 ft | 408 kts | 263° |
| 2026-05-07 22:33 | 37.08382 | -100.61861 | 29942 ft | 409 kts | 264° |
| 2026-05-07 22:33 | 37.07600 | -100.68926 | 29950 ft | 410 kts | 263° |
| 2026-05-07 22:34 | 37.06814 | -100.76008 | 29959 ft | 411 kts | 263° |
| 2026-05-07 22:34 | 37.06024 | -100.83098 | 29966 ft | 411 kts | 263° |
| 2026-05-07 22:35 | 37.05228 | -100.90186 | 29970 ft | 411 kts | 263° |
| 2026-05-07 22:35 | 37.04424 | -100.97278 | 29971 ft | 412 kts | 263° |
| 2026-05-07 22:36 | 37.03520 | -101.04357 | 29974 ft | 412 kts | 262° |
| 2026-05-07 22:36 | 37.02540 | -101.11379 | 29971 ft | 412 kts | 262° |
| 2026-05-07 22:37 | 37.01560 | -101.18446 | 29967 ft | 412 kts | 262° |
| 2026-05-07 22:37 | 37.00583 | -101.25568 | 29962 ft | 412 kts | 262° |
| 2026-05-07 22:38 | 36.99618 | -101.32591 | 29927 ft | 413 kts | 262° |
| 2026-05-07 22:38 | 36.98641 | -101.39694 | 29938 ft | 415 kts | 262° |
| 2026-05-07 22:39 | 36.97657 | -101.46825 | 29941 ft | 417 kts | 262° |
| 2026-05-07 22:39 | 36.96661 | -101.53970 | 29941 ft | 417 kts | 262° |
| 2026-05-07 22:40 | 36.95665 | -101.61128 | 29963 ft | 418 kts | 262° |
| 2026-05-07 22:40 | 36.94666 | -101.68299 | 29970 ft | 419 kts | 262° |
| 2026-05-07 22:41 | 36.93663 | -101.75475 | 29978 ft | 420 kts | 262° |
| 2026-05-07 22:41 | 36.92644 | -101.82672 | 29993 ft | 421 kts | 262° |
| 2026-05-07 22:42 | 36.91612 | -101.89871 | 29998 ft | 421 kts | 262° |
| 2026-05-07 22:42 | 36.90584 | -101.97034 | 29990 ft | 421 kts | 262° |
| 2026-05-07 22:43 | 36.89548 | -102.04284 | 29970 ft | 421 kts | 262° |
| 2026-05-07 22:43 | 36.88526 | -102.11452 | 29948 ft | 422 kts | 262° |
| 2026-05-07 22:44 | 36.87478 | -102.18675 | 29928 ft | 423 kts | 262° |
| 2026-05-07 22:44 | 36.86424 | -102.25906 | 29909 ft | 423 kts | 262° |
| 2026-05-07 22:45 | 36.85368 | -102.33140 | 29908 ft | 424 kts | 262° |
| 2026-05-07 22:45 | 36.84303 | -102.40372 | 29916 ft | 424 kts | 262° |
| 2026-05-07 22:46 | 36.83239 | -102.47617 | 29904 ft | 425 kts | 262° |
| 2026-05-07 22:46 | 36.82171 | -102.54876 | 29910 ft | 426 kts | 262° |
| 2026-05-07 22:47 | 36.81086 | -102.62148 | 29916 ft | 426 kts | 261° |
| 2026-05-07 22:47 | 36.80000 | -102.69419 | 29923 ft | 427 kts | 261° |
| 2026-05-07 22:48 | 36.78908 | -102.76703 | 29929 ft | 427 kts | 261° |
| 2026-05-07 22:48 | 36.77997 | -102.82757 | 29918 ft | 428 kts | 261° |
| 2026-05-07 22:49 | 36.76892 | -102.90055 | 29914 ft | 429 kts | 261° |
| 2026-05-07 22:49 | 36.75782 | -102.97363 | 29927 ft | 429 kts | 261° |
| 2026-05-07 22:50 | 36.74661 | -103.04677 | 29933 ft | 430 kts | 261° |
| 2026-05-07 22:50 | 36.73340 | -103.11941 | 29948 ft | 431 kts | 254° |
| 2026-05-07 22:51 | 36.71472 | -103.19057 | 29945 ft | 432 kts | 254° |
| 2026-05-07 22:51 | 36.69619 | -103.26141 | 29954 ft | 433 kts | 254° |
| 2026-05-07 22:52 | 36.67757 | -103.33280 | 29960 ft | 434 kts | 254° |
| 2026-05-07 22:52 | 36.65879 | -103.40426 | 29978 ft | 434 kts | 254° |
| 2026-05-07 22:53 | 36.63998 | -103.47566 | 29975 ft | 434 kts | 254° |
| 2026-05-07 22:53 | 36.62107 | -103.54704 | 29974 ft | 435 kts | 254° |
| 2026-05-07 22:54 | 36.60211 | -103.61856 | 29973 ft | 436 kts | 254° |
| 2026-05-07 22:54 | 36.58305 | -103.69022 | 29978 ft | 436 kts | 253° |
| 2026-05-07 22:55 | 36.56388 | -103.76192 | 29982 ft | 437 kts | 253° |
| 2026-05-07 22:55 | 36.54460 | -103.83364 | 29998 ft | 438 kts | 253° |
| 2026-05-07 22:56 | 36.52538 | -103.90550 | 29981 ft | 438 kts | 253° |
| 2026-05-07 22:56 | 36.50603 | -103.97745 | 29990 ft | 439 kts | 253° |
| 2026-05-07 22:57 | 36.48497 | -104.04884 | 29991 ft | 441 kts | 250° |
| 2026-05-07 22:57 | 36.46058 | -104.11892 | 29995 ft | 442 kts | 248° |
| 2026-05-07 22:58 | 36.43559 | -104.18866 | 29997 ft | 442 kts | 249° |
| 2026-05-07 22:58 | 36.41116 | -104.25871 | 29985 ft | 442 kts | 249° |
| 2026-05-07 22:59 | 36.38714 | -104.32907 | 29986 ft | 443 kts | 249° |
| 2026-05-07 22:59 | 36.36307 | -104.39953 | 29985 ft | 444 kts | 249° |
| 2026-05-07 23:00 | 36.33881 | -104.46990 | 29972 ft | 444 kts | 249° |
| 2026-05-07 23:00 | 36.31451 | -104.53969 | 29973 ft | 444 kts | 249° |
| 2026-05-07 23:01 | 36.29004 | -104.60994 | 29978 ft | 444 kts | 249° |
| 2026-05-07 23:01 | 36.26562 | -104.68027 | 29979 ft | 444 kts | 249° |
| 2026-05-07 23:02 | 36.24114 | -104.75052 | 29979 ft | 444 kts | 249° |
| 2026-05-07 23:02 | 36.21661 | -104.82071 | 29978 ft | 444 kts | 249° |
| 2026-05-07 23:03 | 36.19187 | -104.89128 | 29971 ft | 444 kts | 249° |
| 2026-05-07 23:03 | 36.16742 | -104.96088 | 29971 ft | 444 kts | 249° |
| 2026-05-07 23:04 | 36.14275 | -105.03099 | 29979 ft | 445 kts | 249° |
| 2026-05-07 23:04 | 36.11797 | -105.10115 | 29999 ft | 445 kts | 248° |
| 2026-05-07 23:05 | 36.09319 | -105.17133 | 29996 ft | 446 kts | 248° |
| 2026-05-07 23:05 | 36.06830 | -105.24161 | 30007 ft | 446 kts | 248° |
| 2026-05-07 23:06 | 36.04332 | -105.31180 | 29985 ft | 447 kts | 248° |
| 2026-05-07 23:06 | 36.01823 | -105.38221 | 29990 ft | 448 kts | 248° |
| 2026-05-07 23:07 | 35.99305 | -105.45279 | 29992 ft | 449 kts | 248° |
| 2026-05-07 23:07 | 35.97167 | -105.52498 | 29992 ft | 448 kts | 254° |
| 2026-05-07 23:08 | 35.95279 | -105.59820 | 30006 ft | 448 kts | 254° |
| 2026-05-07 23:08 | 35.93371 | -105.67133 | 29998 ft | 448 kts | 255° |
| 2026-05-07 23:09 | 35.91462 | -105.74442 | 30001 ft | 448 kts | 255° |
| 2026-05-07 23:09 | 35.89550 | -105.81755 | 29987 ft | 448 kts | 254° |
| 2026-05-07 23:10 | 35.87633 | -105.89064 | 29978 ft | 448 kts | 255° |
| 2026-05-07 23:10 | 35.85713 | -105.96377 | 30009 ft | 448 kts | 254° |
| 2026-05-07 23:11 | 35.83787 | -106.03693 | 30020 ft | 450 kts | 253° |
| 2026-05-07 23:11 | 35.81842 | -106.11037 | 30018 ft | 452 kts | 253° |
| 2026-05-07 23:12 | 35.79889 | -106.18404 | 30019 ft | 452 kts | 253° |
| 2026-05-07 23:12 | 35.77929 | -106.25780 | 30011 ft | 453 kts | 253° |
| 2026-05-07 23:13 | 35.75964 | -106.33155 | 30002 ft | 454 kts | 253° |
| 2026-05-07 23:13 | 35.73990 | -106.40541 | 29974 ft | 455 kts | 255° |
| 2026-05-07 23:14 | 35.72003 | -106.47940 | 29949 ft | 455 kts | 253° |
| 2026-05-07 23:14 | 35.70021 | -106.55343 | 29956 ft | 456 kts | 254° |
| 2026-05-07 23:15 | 35.68021 | -106.62751 | 29965 ft | 456 kts | 253° |
| 2026-05-07 23:15 | 35.66023 | -106.70157 | 29961 ft | 456 kts | 253° |
| 2026-05-07 23:16 | 35.64011 | -106.77577 | 29957 ft | 458 kts | 254° |
| 2026-05-07 23:16 | 35.61987 | -106.85012 | 29957 ft | 459 kts | 254° |
| 2026-05-07 23:17 | 35.59954 | -106.92457 | 29967 ft | 460 kts | 255° |
| 2026-05-07 23:17 | 35.58941 | -106.96175 | 29704 ft | 456 kts | 254° |
| 2026-05-07 23:17 | 35.57935 | -106.99859 | 28845 ft | 455 kts | 254° |
| 2026-05-07 23:17 | 35.56927 | -107.03541 | 28214 ft | 454 kts | 254° |
| 2026-05-07 23:18 | 35.55918 | -107.07234 | 27989 ft | 457 kts | 253° |
| 2026-05-07 23:18 | 35.54903 | -107.10942 | 27997 ft | 459 kts | 253° |
| 2026-05-07 23:18 | 35.53882 | -107.14657 | 27998 ft | 460 kts | 254° |
| 2026-05-07 23:18 | 35.52856 | -107.18379 | 27991 ft | 460 kts | 253° |
| 2026-05-07 23:19 | 35.51828 | -107.22094 | 28005 ft | 460 kts | 253° |
| 2026-05-07 23:19 | 35.50812 | -107.25764 | 27998 ft | 460 kts | 254° |
| 2026-05-07 23:19 | 35.49772 | -107.29532 | 28000 ft | 460 kts | 253° |
| 2026-05-07 23:20 | 35.47712 | -107.36976 | 28003 ft | 460 kts | 253° |
| 2026-05-07 23:20 | 35.46692 | -107.40647 | 27995 ft | 461 kts | 253° |
| 2026-05-07 23:20 | 35.45657 | -107.44365 | 27984 ft | 461 kts | 253° |
| 2026-05-07 23:20 | 35.44619 | -107.48088 | 27981 ft | 462 kts | 252° |
| 2026-05-07 23:21 | 35.43579 | -107.51818 | 27980 ft | 462 kts | 253° |
| 2026-05-07 23:21 | 35.42539 | -107.55545 | 27979 ft | 462 kts | 252° |
| 2026-05-07 23:21 | 35.41494 | -107.59275 | 27977 ft | 463 kts | 252° |
| 2026-05-07 23:21 | 35.40449 | -107.63001 | 27975 ft | 463 kts | 253° |
| 2026-05-07 23:22 | 35.39404 | -107.66736 | 27977 ft | 463 kts | 253° |
| 2026-05-07 23:22 | 35.38360 | -107.70468 | 27975 ft | 463 kts | 253° |
| 2026-05-07 23:22 | 35.37314 | -107.74196 | 27980 ft | 463 kts | 253° |
| 2026-05-07 23:22 | 35.36266 | -107.77931 | 27968 ft | 464 kts | 253° |
| 2026-05-07 23:23 | 35.35215 | -107.81671 | 28061 ft | 464 kts | 252° |
| 2026-05-07 23:23 | 35.33103 | -107.89153 | 28083 ft | 465 kts | 252° |
| 2026-05-07 23:24 | 35.30983 | -107.96638 | 28095 ft | 466 kts | 252° |
| 2026-05-07 23:24 | 35.28855 | -108.04124 | 28089 ft | 466 kts | 252° |
| 2026-05-07 23:25 | 35.26722 | -108.11618 | 28065 ft | 466 kts | 252° |
| 2026-05-07 23:25 | 35.24589 | -108.19099 | 28031 ft | 466 kts | 252° |
| 2026-05-07 23:26 | 35.22444 | -108.26579 | 28001 ft | 466 kts | 252° |
| 2026-05-07 23:26 | 35.21371 | -108.30315 | 27982 ft | 466 kts | 252° |
| 2026-05-07 23:26 | 35.20296 | -108.34055 | 27965 ft | 466 kts | 252° |
| 2026-05-07 23:26 | 35.19220 | -108.37792 | 27963 ft | 466 kts | 252° |
| 2026-05-07 23:27 | 35.17068 | -108.45269 | 27961 ft | 466 kts | 252° |
| 2026-05-07 23:27 | 35.15990 | -108.49011 | 27959 ft | 466 kts | 252° |
| 2026-05-07 23:27 | 35.14913 | -108.52747 | 27959 ft | 467 kts | 252° |
| 2026-05-07 23:28 | 35.13833 | -108.56490 | 27957 ft | 467 kts | 252° |
| 2026-05-07 23:28 | 35.12752 | -108.60228 | 27952 ft | 467 kts | 252° |
| 2026-05-07 23:28 | 35.11667 | -108.63967 | 27954 ft | 467 kts | 252° |
| 2026-05-07 23:28 | 35.10582 | -108.67702 | 27954 ft | 467 kts | 252° |
| 2026-05-07 23:29 | 35.09494 | -108.71444 | 27953 ft | 467 kts | 252° |
| 2026-05-07 23:29 | 35.08408 | -108.75177 | 27953 ft | 467 kts | 252° |
| 2026-05-07 23:29 | 35.07319 | -108.78918 | 27949 ft | 467 kts | 252° |
| 2026-05-07 23:29 | 35.06228 | -108.82655 | 27947 ft | 468 kts | 252° |
| 2026-05-07 23:30 | 35.05132 | -108.86395 | 27938 ft | 468 kts | 252° |
| 2026-05-07 23:30 | 35.04031 | -108.90137 | 27941 ft | 469 kts | 252° |
| 2026-05-07 23:30 | 35.02928 | -108.93883 | 27942 ft | 469 kts | 252° |
| 2026-05-07 23:30 | 35.01825 | -108.97628 | 27943 ft | 469 kts | 252° |
| 2026-05-07 23:31 | 35.00736 | -109.01322 | 27941 ft | 469 kts | 252° |
| 2026-05-07 23:31 | 34.99632 | -109.05065 | 27946 ft | 469 kts | 252° |
| 2026-05-07 23:31 | 34.98531 | -109.08811 | 27947 ft | 469 kts | 252° |
| 2026-05-07 23:31 | 34.97416 | -109.12608 | 27949 ft | 470 kts | 252° |
| 2026-05-07 23:32 | 34.96301 | -109.16340 | 27936 ft | 470 kts | 250° |
| 2026-05-07 23:32 | 34.95081 | -109.20042 | 27935 ft | 471 kts | 249° |
| 2026-05-07 23:32 | 34.93784 | -109.23658 | 27943 ft | 472 kts | 247° |
| 2026-05-07 23:32 | 34.92392 | -109.27341 | 27943 ft | 473 kts | 246° |
| 2026-05-07 23:33 | 34.90994 | -109.30972 | 27941 ft | 474 kts | 246° |
| 2026-05-07 23:33 | 34.89623 | -109.34562 | 27939 ft | 474 kts | 246° |
| 2026-05-07 23:33 | 34.88258 | -109.38198 | 27941 ft | 474 kts | 247° |
| 2026-05-07 23:33 | 34.86908 | -109.41863 | 27950 ft | 475 kts | 247° |
| 2026-05-07 23:34 | 34.85569 | -109.45539 | 27950 ft | 475 kts | 248° |
| 2026-05-07 23:34 | 34.84235 | -109.49215 | 27952 ft | 475 kts | 248° |
| 2026-05-07 23:34 | 34.82897 | -109.52899 | 27955 ft | 476 kts | 248° |
| 2026-05-07 23:34 | 34.81554 | -109.56579 | 27954 ft | 476 kts | 247° |
| 2026-05-07 23:35 | 34.80641 | -109.59069 | 27951 ft | 477 kts | 247° |
| 2026-05-07 23:35 | 34.79285 | -109.62747 | 27950 ft | 477 kts | 247° |
| 2026-05-07 23:35 | 34.77923 | -109.66427 | 27948 ft | 477 kts | 247° |
| 2026-05-07 23:35 | 34.76561 | -109.70102 | 27943 ft | 477 kts | 247° |
| 2026-05-07 23:36 | 34.75196 | -109.73782 | 27953 ft | 477 kts | 247° |
| 2026-05-07 23:36 | 34.73830 | -109.77461 | 27951 ft | 477 kts | 247° |
| 2026-05-07 23:36 | 34.72465 | -109.81140 | 27954 ft | 478 kts | 247° |
| 2026-05-07 23:36 | 34.71100 | -109.84821 | 27952 ft | 478 kts | 247° |
| 2026-05-07 23:37 | 34.69749 | -109.88460 | 27951 ft | 478 kts | 247° |
| 2026-05-07 23:37 | 34.68379 | -109.92145 | 27950 ft | 479 kts | 247° |
| 2026-05-07 23:37 | 34.67006 | -109.95829 | 27961 ft | 479 kts | 247° |
| 2026-05-07 23:37 | 34.65615 | -109.99564 | 27962 ft | 479 kts | 247° |
| 2026-05-07 23:38 | 34.64244 | -110.03243 | 27961 ft | 479 kts | 247° |
| 2026-05-07 23:38 | 34.62889 | -110.06886 | 27963 ft | 479 kts | 247° |
| 2026-05-07 23:38 | 34.61498 | -110.10620 | 27968 ft | 479 kts | 247° |
| 2026-05-07 23:38 | 34.60120 | -110.14300 | 27967 ft | 479 kts | 247° |
| 2026-05-07 23:39 | 34.58755 | -110.17934 | 27963 ft | 480 kts | 247° |
| 2026-05-07 23:39 | 34.57350 | -110.21670 | 27972 ft | 480 kts | 247° |
| 2026-05-07 23:39 | 34.55983 | -110.25306 | 27970 ft | 481 kts | 247° |
| 2026-05-07 23:39 | 34.54594 | -110.28996 | 27972 ft | 481 kts | 247° |
| 2026-05-07 23:40 | 34.53187 | -110.32733 | 27968 ft | 481 kts | 247° |
| 2026-05-07 23:40 | 34.51797 | -110.36424 | 27975 ft | 481 kts | 247° |
| 2026-05-07 23:40 | 34.50427 | -110.40060 | 27980 ft | 481 kts | 247° |
| 2026-05-07 23:40 | 34.49033 | -110.43754 | 27987 ft | 481 kts | 247° |
| 2026-05-07 23:41 | 34.47637 | -110.47445 | 27989 ft | 482 kts | 247° |
| 2026-05-07 23:41 | 34.46240 | -110.51134 | 27976 ft | 483 kts | 247° |
| 2026-05-07 23:41 | 34.44838 | -110.54834 | 27970 ft | 484 kts | 247° |
| 2026-05-07 23:41 | 34.43432 | -110.58542 | 27968 ft | 484 kts | 247° |
| 2026-05-07 23:42 | 34.42022 | -110.62250 | 27950 ft | 484 kts | 247° |
| 2026-05-07 23:42 | 34.40629 | -110.65904 | 27687 ft | 472 kts | 247° |
| 2026-05-07 23:42 | 34.39275 | -110.69457 | 27431 ft | 459 kts | 247° |
| 2026-05-07 23:42 | 34.37955 | -110.72921 | 27171 ft | 447 kts | 247° |
| 2026-05-07 23:43 | 34.36667 | -110.76292 | 26903 ft | 438 kts | 246° |
| 2026-05-07 23:43 | 34.35167 | -110.79486 | 26657 ft | 435 kts | 236° |
| 2026-05-07 23:43 | 34.33297 | -110.82309 | 26404 ft | 426 kts | 227° |
| 2026-05-07 23:43 | 34.31283 | -110.84903 | 26161 ft | 421 kts | 227° |
| 2026-05-07 23:44 | 34.29287 | -110.87478 | 25677 ft | 418 kts | 227° |
| 2026-05-07 23:44 | 34.27304 | -110.90041 | 25032 ft | 418 kts | 227° |
| 2026-05-07 23:44 | 34.25319 | -110.92605 | 24445 ft | 416 kts | 227° |
| 2026-05-07 23:44 | 34.23362 | -110.95133 | 24098 ft | 408 kts | 227° |
| 2026-05-07 23:45 | 34.21430 | -110.97630 | 23612 ft | 406 kts | 226° |
| 2026-05-07 23:45 | 34.19508 | -111.00113 | 23080 ft | 402 kts | 227° |
| 2026-05-07 23:45 | 34.17604 | -111.02570 | 22559 ft | 399 kts | 226° |
| 2026-05-07 23:45 | 34.15718 | -111.04999 | 22041 ft | 395 kts | 226° |
| 2026-05-07 23:46 | 34.13846 | -111.07410 | 21540 ft | 392 kts | 226° |
| 2026-05-07 23:46 | 34.11990 | -111.09800 | 21061 ft | 388 kts | 227° |
| 2026-05-07 23:46 | 34.10152 | -111.12162 | 20599 ft | 384 kts | 226° |
| 2026-05-07 23:46 | 34.08329 | -111.14504 | 20126 ft | 381 kts | 227° |
| 2026-05-07 23:47 | 34.06513 | -111.16831 | 19581 ft | 381 kts | 227° |
| 2026-05-07 23:47 | 34.04695 | -111.19159 | 19090 ft | 380 kts | 227° |
| 2026-05-07 23:47 | 34.02888 | -111.21476 | 18644 ft | 378 kts | 226° |
| 2026-05-07 23:47 | 34.01096 | -111.23773 | 18178 ft | 376 kts | 227° |
| 2026-05-07 23:48 | 33.99315 | -111.26057 | 17686 ft | 371 kts | 227° |
| 2026-05-07 23:48 | 33.97584 | -111.28272 | 17029 ft | 366 kts | 227° |
| 2026-05-07 23:48 | 33.95851 | -111.30489 | 16365 ft | 360 kts | 227° |
| 2026-05-07 23:48 | 33.94148 | -111.32665 | 15723 ft | 354 kts | 227° |
| 2026-05-07 23:49 | 33.92482 | -111.34794 | 15302 ft | 343 kts | 227° |
| 2026-05-07 23:49 | 33.90865 | -111.36860 | 14769 ft | 336 kts | 227° |
| 2026-05-07 23:49 | 33.89279 | -111.38887 | 14246 ft | 328 kts | 227° |
| 2026-05-07 23:49 | 33.87654 | -111.40776 | 13754 ft | 322 kts | 219° |
| 2026-05-07 23:50 | 33.85859 | -111.42330 | 13326 ft | 313 kts | 217° |
| 2026-05-07 23:50 | 33.84096 | -111.43836 | 12914 ft | 310 kts | 217° |
| 2026-05-07 23:50 | 33.82349 | -111.45337 | 12518 ft | 307 kts | 217° |
| 2026-05-07 23:50 | 33.80613 | -111.46833 | 12080 ft | 307 kts | 217° |
| 2026-05-07 23:51 | 33.78877 | -111.48326 | 11636 ft | 307 kts | 218° |
| 2026-05-07 23:51 | 33.77137 | -111.49824 | 11194 ft | 307 kts | 217° |
| 2026-05-07 23:51 | 33.75401 | -111.51321 | 10731 ft | 308 kts | 218° |
| 2026-05-07 23:51 | 33.73659 | -111.52822 | 10267 ft | 308 kts | 218° |
| 2026-05-07 23:52 | 33.71945 | -111.54294 | 10078 ft | 296 kts | 218° |
| 2026-05-07 23:52 | 33.70320 | -111.55682 | 9912 ft | 278 kts | 220° |
| 2026-05-07 23:52 | 33.68748 | -111.57029 | 9387 ft | 275 kts | 219° |
| 2026-05-07 23:52 | 33.67238 | -111.58324 | 9193 ft | 259 kts | 219° |
| 2026-05-07 23:53 | 33.65807 | -111.59549 | 9089 ft | 250 kts | 218° |
| 2026-05-07 23:53 | 33.64405 | -111.60747 | 8966 ft | 247 kts | 220° |
| 2026-05-07 23:53 | 33.63001 | -111.61939 | 8674 ft | 246 kts | 218° |
| 2026-05-07 23:53 | 33.61606 | -111.63106 | 8347 ft | 242 kts | 220° |
| 2026-05-07 23:54 | 33.60232 | -111.64253 | 8047 ft | 239 kts | 219° |
| 2026-05-07 23:54 | 33.58874 | -111.65386 | 7740 ft | 237 kts | 218° |
| 2026-05-07 23:54 | 33.57529 | -111.66508 | 7447 ft | 234 kts | 218° |
| 2026-05-07 23:54 | 33.56201 | -111.67616 | 7155 ft | 230 kts | 219° |
| 2026-05-07 23:55 | 33.54895 | -111.68710 | 6872 ft | 228 kts | 217° |
| 2026-05-07 23:55 | 33.53594 | -111.69810 | 6582 ft | 228 kts | 220° |
| 2026-05-07 23:55 | 33.52299 | -111.70909 | 6289 ft | 229 kts | 218° |
| 2026-05-07 23:55 | 33.50996 | -111.72011 | 5987 ft | 229 kts | 217° |
| 2026-05-07 23:56 | 33.49700 | -111.73107 | 5705 ft | 228 kts | 217° |
| 2026-05-07 23:56 | 33.48423 | -111.74185 | 5413 ft | 222 kts | 217° |
| 2026-05-07 23:56 | 33.47175 | -111.75237 | 5136 ft | 217 kts | 218° |
| 2026-05-07 23:56 | 33.45954 | -111.76265 | 4878 ft | 211 kts | 218° |
| 2026-05-07 23:57 | 33.44886 | -111.77401 | 4561 ft | 202 kts | 233° |
| 2026-05-07 23:57 | 33.44241 | -111.78833 | 4314 ft | 191 kts | 252° |
| 2026-05-07 23:57 | 33.44037 | -111.80391 | 4086 ft | 191 kts | 269° |
| 2026-05-07 23:57 | 33.44044 | -111.81982 | 3843 ft | 191 kts | 270° |
| 2026-05-07 23:58 | 33.44048 | -111.83566 | 3604 ft | 189 kts | 269° |
| 2026-05-07 23:58 | 33.44053 | -111.85130 | 3364 ft | 186 kts | 269° |
| 2026-05-07 23:58 | 33.44057 | -111.86677 | 3130 ft | 185 kts | 270° |
| 2026-05-07 23:58 | 33.44060 | -111.88215 | 2873 ft | 183 kts | 269° |
| 2026-05-07 23:59 | 33.44064 | -111.89685 | 2657 ft | 169 kts | 268° |
| 2026-05-07 23:59 | 33.44067 | -111.91069 | 2440 ft | 162 kts | 271° |
| 2026-05-07 23:59 | 33.44070 | -111.92370 | 2239 ft | 154 kts | 270° |
| 2026-05-07 23:59 | 33.44072 | -111.93638 | 2055 ft | 151 kts | 271° |
| 2026-05-08 00:00 | 33.44075 | -111.94889 | 1871 ft | 150 kts | 271° |
| 2026-05-08 00:00 | 33.44087 | -111.96140 | 1604 ft | 151 kts | 271° |
| 2026-05-08 00:00 | 33.44085 | -111.97371 | 1455 ft | 150 kts | 270° |
| 2026-05-08 00:00 | 33.44085 | -111.98610 | 1272 ft | 148 kts | 271° |
| 2026-05-08 00:01 | 33.44086 | -111.99837 | 1140 ft | 142 kts | 274° |
| 2026-05-08 00:01 | 33.44088 | -112.00898 | 1129 ft | 101 kts | 269° |
| 2026-05-08 00:01 | 33.44086 | -112.01523 | 1130 ft | 52 kts | 270° |
| 2026-05-08 00:01 | 33.44087 | -112.01752 | 1129 ft | 7 kts | 270° |
| 2026-05-08 00:02 | 33.44087 | -112.01838 | 1128 ft | 12 kts | 270° |
| 2026-05-08 00:02 | 33.44087 | -112.01941 | 1126 ft | 12 kts | 265° |
| 2026-05-08 00:02 | 33.44048 | -112.02026 | 1119 ft | 12 kts | 213° |
| 2026-05-08 00:02 | 33.43981 | -112.02003 | 1124 ft | 11 kts | 119° |
| 2026-05-08 00:03 | 33.43974 | -112.01921 | 1119 ft | 9 kts | 90° |
| 2026-05-08 00:03 | 33.43974 | -112.01850 | 1120 ft | 8 kts | 90° |
| 2026-05-08 00:03 | 33.43974 | -112.01793 | 1123 ft | 6 kts | 89° |
| 2026-05-08 00:03 | 33.43975 | -112.01732 | 1126 ft | 11 kts | 89° |
| 2026-05-08 00:04 | 33.43975 | -112.01627 | 1123 ft | 13 kts | 90° |
| 2026-05-08 00:04 | 33.43974 | -112.01526 | 1125 ft | 12 kts | 90° |
| 2026-05-08 00:04 | 33.43974 | -112.01432 | 1121 ft | 11 kts | 90° |
| 2026-05-08 00:04 | 33.43974 | -112.01348 | 1121 ft | 9 kts | 90° |
| 2026-05-08 00:05 | 33.43974 | -112.01266 | 1121 ft | 12 kts | 89° |
| 2026-05-08 00:05 | 33.43974 | -112.01158 | 1121 ft | 13 kts | 90° |
| 2026-05-08 00:05 | 33.43974 | -112.01052 | 1121 ft | 15 kts | 90° |
| 2026-05-08 00:05 | 33.43974 | -112.00929 | 1123 ft | 14 kts | 90° |
| 2026-05-08 00:06 | 33.43973 | -112.00813 | 1123 ft | 13 kts | 90° |
| 2026-05-08 00:06 | 33.43974 | -112.00706 | 1121 ft | 12 kts | 90° |
| 2026-05-08 00:06 | 33.43974 | -112.00609 | 1121 ft | 11 kts | 90° |
| 2026-05-08 00:06 | 33.43973 | -112.00508 | 1126 ft | 12 kts | 90° |
| 2026-05-08 00:07 | 33.43969 | -112.00413 | 1126 ft | 11 kts | 109° |
| 2026-05-08 00:07 | 33.43914 | -112.00360 | 1118 ft | 10 kts | 128° |
| 2026-05-08 00:07 | 33.43878 | -112.00305 | 1123 ft | 8 kts | 164° |
| 2026-05-08 00:07 | 33.43834 | -112.00281 | 1112 ft | 6 kts | 141° |
| 2026-05-08 00:08 | 33.43816 | -112.00258 | 1119 ft | 2 kts | 132° |
| 2026-05-08 00:08 | 33.43809 | -112.00249 | 1121 ft | 1 kts | 132° |
| 2026-05-08 00:08 | 33.43808 | -112.00247 | 1122 ft | 0 kts | 132° |